Terminal Aerodrome Forecast
Issued by NWS

Home | Current Version | Previous Version | Text Only | Print | Product List | Glossary On
Versions: 1 2 3 4 5 6 7 8 9 10 11 12 13 14 15 16 17 18 19 20 21 22 23 24 25 26 27 28 29 30 31
000
FTUS45 KSLC 022343
TAFOGD
TAF
KOGD 022343Z 0300/0324 35005KT 4SM -RASN BR BKN005 OVC020
     FM030200 VRB05KT 2SM -SN SCT009 BKN020
     FM030400 17007KT P6SM VCSH SCT020 BKN060
     FM031000 30009KT 2SM -SN SCT004 BKN015
     FM031400 32010G16KT 3/4SM -SN BR VV004
     FM031700 31011KT P6SM VCSH SCT010 BKN040=

USA.gov is the U.S. government's official web portal to all federal, state and local government web resources and services.